echo '';

Nearby METAR Reports

 

ENRY - Rygge (nor-Afb), Norway
Distance from station: NV 23km
Oppdatert: 20/04/2018 23:20
Klart
Klart
 Vind fra SV
Vind: SV 7 km/h
Temperatur: 5°C
Vindkjøling: 3°C
Duggpunkt: 4°C
Fuktighet: 93%
Barometer: 1011 hPa
Clouds: Klart
Visibility: 16 miles
2018/04/20 21:20 ENRY 202120Z AUTO 23004KT 9999NDV NCD 05/04 Q1011
ENTO - Torp (civ/Nor-Af, Norway
Distance from station: V 47km
Oppdatert: 20/04/2018 23:20
Klart
Klart
 Vind fra V
Vind: V 9 km/h
Temperatur: 10°C
Vindkjøling: 9°C
Duggpunkt: 1°C
Fuktighet: 54%
Barometer: 1012 hPa
Clouds: Klart
Visibility: 10 km
2018/04/20 21:20 ENTO 202120Z AUTO 28005KT 9999 NCD 10/01 Q1012
 
ENSN - Skien/Geiterygge, Norway
Distance from station: V 87km
Oppdatert: 09/11/2015 09:50
NOT Current
Klart
Klart
 Vind fra SSV
Vind: SSV 19 km/h, Vindkast: 41 km/h
Temperatur: 7°C
Vindkjøling: 4°C
Duggpunkt: 3°C
Fuktighet: 76%
Barometer: 1000 hPa
Oversikt: Klart
Visibility: greater than 10 km
2015/11/09 08:50 ENSN 090850Z 20010G22KT 150V240 CAVOK 07/03 Q1000
ENGM - Oslo/Gardermoen, Norway
Distance from station: 0 107km
Oppdatert: 20/04/2018 23:20
Klart
Klart
 Vind fra V
Vind: V 7 km/h
Temperatur: 9°C
Vindkjøling: 8°C
Duggpunkt: -2°C
Fuktighet: 46%
Barometer: 1009 hPa
Oversikt: Klart
Visibility: greater than 10 km
2018/04/20 21:20 ENGM 202120Z 28004KT 200V340 CAVOK 09/M02 Q1009
 
ENNO - Notodden, Norway
Distance from station: VNV 112km
Oppdatert: 20/04/2018 18:50
NOT Current
Few Clouds
Few Clouds
 Vind fra V
Vind: V 15 km/h
Temperatur: 17°C
Duggpunkt: 5°C
Fuktighet: 45%
Barometer: 1012 hPa
Clouds: Few Clouds
Visibility: 10 km
Cloud details: Few Clouds 1676 m
2018/04/20 16:50 ENNO 201650Z 28008KT 9999 FEW055 17/05 Q1012
ESGT - Trollhattan (pvt, Sweden
Distance from station: SØ 125km
Oppdatert: 20/04/2018 19:50
NOT Current
Klart
Klart
 Vind fra VSV
Vind: VSV 17 km/h
Temperatur: 15°C
Duggpunkt: 9°C
Fuktighet: 68%
Barometer: 1011 hPa
Oversikt: Klart
Visibility: greater than 10 km
2018/04/20 17:50 ESGT 201750Z 25009KT CAVOK 15/09 Q1011
 
ESIB - Satenas (swe-Afb, Sweden
Distance from station: SØ 129km
Oppdatert: 20/04/2018 23:20
Mist, Few clouds
Mist, Few clouds
 Vind fra V
Vind: V 20 km/h
Temperatur: 10°C
Vindkjøling: 7°C
Duggpunkt: 8°C
Fuktighet: 88%
Barometer: 1011 hPa
Oversikt: Mist
Clouds: Few Clouds
Visibility: 7 km
Cloud details: Few Clouds 1707 m
2018/04/20 21:20 ESIB 202120Z AUTO 27011KT 7000 BR FEW056/// 10/08 Q1011
ESOK - Karlstad North, Sweden
Distance from station: ØNØ 129km
Oppdatert: 20/04/2018 23:20
Klart
Klart
 Vind fra V
Vind: V 15 km/h
Temperatur: 12°C
Duggpunkt: 7°C
Fuktighet: 72%
Barometer: 1008 hPa
Clouds: Klart
Visibility: 10 km
2018/04/20 21:20 ESOK 202120Z AUTO 27008KT 9999 NCD 12/07 Q1008
 
ESGP - Goteborg/Save (a, Sweden
Distance from station: SSØ 169km
Oppdatert: 02/01/2017 11:20
NOT Current
Klart
Klart
 Vind fra calm
Vind: Stille
Temperatur: -2°C
Duggpunkt: -4°C
Fuktighet: 86%
Barometer: 1012 hPa
Clouds: Klart
Visibility: 10 km
2017/01/02 10:20 ESGP 021020Z AUTO 00000KT 9999 NCD M02/M04 Q1012
ESGG - Goteborg/Landvet, Sweden
Distance from station: SSØ 188km
Oppdatert: 20/04/2018 23:20
Klart
Klart
 Vind fra VNV
Vind: VNV 11 km/h
Temperatur: 9°C
Vindkjøling: 7°C
Duggpunkt: 6°C
Fuktighet: 82%
Barometer: 1013 hPa
Oversikt: Klart
Visibility: greater than 10 km
2018/04/20 21:20 ESGG 202120Z 29006KT 260V330 CAVOK 09/06 Q1013
 
EKSN - Sindal Airport, Denmark
Distance from station: SSV 199km
Oppdatert: 20/04/2018 11:50
NOT Current
Klart
Klart
 Vind fra SV
Vind: SV 9 km/h
Temperatur: 22°C
Duggpunkt: 13°C
Fuktighet: 57%
Barometer: 1018 hPa
Oversikt: Klart
Visibility: greater than 10 km
2018/04/20 09:50 EKSN 200950Z 23005KT CAVOK 22/13 Q1018
ENCN - Kristiansand/Kje, Norway
Distance from station: VSV 209km
Oppdatert: 20/04/2018 23:20
Klart
Klart
 Vind fra varies
Vind: varies 6 km/h
Temperatur: 11°C
Duggpunkt: 3°C
Fuktighet: 58%
Barometer: 1016 hPa
Clouds: Klart
Visibility: 10 km
2018/04/20 21:20 ENCN 202120Z AUTO VRB03KT 9999 NCD 11/03 Q1016
 
ENFG - Fagernes/Leirin, Norway
Distance from station: NNV 220km
Oppdatert: 19/04/2018 11:50
NOT Current
Delvis skyet
Delvis skyet
 Vind fra SSV
Vind: SSV 11 km/h
Temperatur: 11°C
Duggpunkt: 2°C
Fuktighet: 54%
Barometer: 1028 hPa
Clouds: Delvis skyet
Visibility: 10 km
Cloud details: Few Clouds 1524 m
Delvis skyet 5486 m
2018/04/19 09:50 ENFG 190950Z 20006KT 9999 FEW050 SCT180 11/02 Q1028
ESOE - Orebro (private), Sweden
Distance from station: Ø 225km
Oppdatert: 20/04/2018 23:20
Few Clouds
Few Clouds
 Vind fra VSV
Vind: VSV 13 km/h
Temperatur: 14°C
Duggpunkt: 10°C
Fuktighet: 77%
Barometer: 1007 hPa
Clouds: Few Clouds
Visibility: 10 km
Cloud details: Few Clouds 1676 m
2018/04/20 21:20 ESOE 202120Z AUTO 24007KT 9999 FEW055/// 14/10 Q1007
 
ESGJ - Jonkoping Airpor, Sweden
Distance from station: SØ 238km
Oppdatert: 20/04/2018 23:20
Few Clouds
Few Clouds
 Vind fra V
Vind: V 20 km/h
Temperatur: 14°C
Duggpunkt: 8°C
Fuktighet: 67%
Barometer: 1010 hPa
Clouds: Few Clouds
Visibility: 10 km
Cloud details: Few Clouds 2987 m
2018/04/20 21:20 ESGJ 202120Z AUTO 26011KT 9999 FEW098/// 14/08 Q1010
EKYT - Alborg, Denmark
Distance from station: SSV 248km
Oppdatert: 20/04/2018 23:20
Klart
Klart
 Vind fra V
Vind: V 13 km/h
Temperatur: 10°C
Vindkjøling: 8°C
Duggpunkt: 6°C
Fuktighet: 76%
Barometer: 1016 hPa
Clouds: Klart
Visibility: 16 miles
2018/04/20 21:20 EKYT 202120Z AUTO 28007KT 9999NDV NCD 10/06 Q1016
 
ESCF - Linkoping/Malmen, Sweden
Distance from station: ØSØ 272km
Oppdatert: 20/04/2018 23:20
Few Clouds
Few Clouds
 Vind fra VSV
Vind: VSV 22 km/h
Temperatur: 16°C
Duggpunkt: 9°C
Fuktighet: 63%
Barometer: 1008 hPa
Clouds: Few Clouds
Visibility: 10 km
Cloud details: Few Clouds 3048 m
2018/04/20 21:20 ESCF 202120Z AUTO 25012KT 9999 FEW100/// 16/09 Q1008
ESSD - Borlange (swe-Af, Sweden
Distance from station: ØNØ 279km
Oppdatert: 20/04/2018 23:20
Klart
Klart
 Vind fra V
Vind: V 20 km/h
Temperatur: 10°C
Vindkjøling: 7°C
Duggpunkt: 8°C
Fuktighet: 88%
Barometer: 1005 hPa
Clouds: Klart
Visibility: 10 km
2018/04/20 21:20 ESSD 202120Z AUTO 26011KT 9999 NCD 10/08 Q1005
 
ESSL - Linkoping/Saab, Sweden
Distance from station: ØSØ 280km
Oppdatert: 20/04/2018 23:20
Few Clouds
Few Clouds
 Vind fra V
Vind: V 26 km/h
Temperatur: 17°C
Duggpunkt: 9°C
Fuktighet: 59%
Barometer: 1007 hPa
Clouds: Few Clouds
Visibility: 10 km
Cloud details: Few Clouds 3048 m
2018/04/20 21:20 ESSL 202120Z AUTO 26014KT 220V280 9999 FEW100/// 17/09 Q1007
ESMT - Halmstad (swe-Af, Sweden
Distance from station: SSØ 303km
Oppdatert: 20/04/2018 23:20
Mist, Klart
Mist, Klart
 Vind fra VNV
Vind: VNV 20 km/h
Temperatur: 12°C
Duggpunkt: 8°C
Fuktighet: 77%
Barometer: 1014 hPa
Oversikt: Mist
Clouds: Klart
Visibility: 7 km
2018/04/20 21:20 ESMT 202120Z AUTO 29011KT 7000 BR NCD 12/08 Q1014